Hanjin Chongqing — 3EPJ2 — position and weather

sailwx.info

Track history (hours):
 
Tides and Currents Weather Stations Pressure Air Temp Water Temp Dewpoint Dewpoint Depression Visibility Wind Speed Wind Dir Waves Ship Positions

Hanjin Chongqing

Last reported at 2014-Aug-01 07:28 UTC. Time now 2014-Aug-01 07:50 UTC.
Position N 01°16' E 103°51'.

Length 304 m; draft 12 m.

Type: Cargo ship. MMSI: 353957976.

Date/timePositionNaut miles runAvg speedWind from/ knotsBaromVisibWave heightAir tempDewpointWater temp
2014-Aug-01 07:28N 01°16' E 103°51'0 0.0
2014-Aug-01 06:31N 01°16' E 103°51'0 0.0
2014-Aug-01 05:31N 01°16' E 103°51'0 0.0
2014-Aug-01 04:31N 01°16' E 103°51'0 0.0
2014-Aug-01 03:31N 01°16' E 103°51'0 0.0
2014-Aug-01 02:31N 01°16' E 103°51'0 0.0
2014-Aug-01 01:31N 01°16' E 103°51'0 0.0
2014-Aug-01 00:31N 01°16' E 103°51'0 0.0
2014-Jul-31 23:28N 01°16' E 103°51'0 0.0
2014-Jul-31 22:31N 01°16' E 103°51'0 0.0
2014-Jul-31 21:31N 01°16' E 103°51'0 0.0
2014-Jul-31 20:31N 01°16' E 103°51'0 0.0
2014-Jul-31 19:31N 01°16' E 103°51'0 0.0
2014-Jul-31 18:31N 01°16' E 103°51'0 0.0
2014-Jul-31 17:28N 01°16' E 103°51'0 0.0
2014-Jul-31 16:28N 01°16' E 103°51'0 0.0
2014-Jul-31 15:31N 01°16' E 103°51'0 0.0
2014-Jul-31 14:31N 01°16' E 103°51'0 0.5
2014-Jul-31 13:33N 01°16' E 103°51'3 3.0
2014-Jul-31 12:33N 01°14' E 103°54'3 3.1
2014-Jul-31 11:33N 01°15' E 103°57'  
2014-Jul-26 23:13N 22°34' E 114°17'1 2.0
2014-Jul-26 22:29N 22°34' E 114°16'0 0.1
2014-Jul-26 21:29N 22°34' E 114°16'0 0.1
2014-Jul-26 20:23N 22°34' E 114°16'0 0.0
2014-Jul-26 19:29N 22°34' E 114°16'0 0.0
2014-Jul-26 18:29N 22°34' E 114°16'0 0.1
2014-Jul-26 17:29N 22°34' E 114°16'0 0.1
2014-Jul-26 16:29N 22°34' E 114°16'0 0.1
2014-Jul-26 15:29N 22°34' E 114°16'0 0.0
2014-Jul-26 14:29N 22°34' E 114°16'0 0.1
2014-Jul-26 13:29N 22°34' E 114°16'0 0.1
2014-Jul-26 12:29N 22°34' E 114°16'0 0.1
2014-Jul-26 11:29N 22°34' E 114°16'0 0.0
2014-Jul-26 10:29N 22°34' E 114°16'0 0.0
2014-Jul-26 09:23N 22°34' E 114°16'0 0.5
2014-Jul-26 08:33N 22°34' E 114°16'12612.6
2014-Jul-25 22:32N 22°40' E 116°32'1514.3
2014-Jul-25 21:30N 22°44' E 116°47'1414.5
2014-Jul-25 20:33N 22°52' E 116°60'1514.4
2014-Jul-25 19:33N 23°00' E 117°13'2914.6
2014-Jul-25 17:33N 23°17' E 117°39'1414.4
2014-Jul-25 16:33N 23°27' E 117°50'1514.9
2014-Jul-25 15:33N 23°37' E 118°02'1514.7
2014-Jul-25 14:33N 23°47' E 118°14'1514.7
2014-Jul-25 13:33N 23°57' E 118°26'3214.4
2014-Jul-25 11:20N 24°17' E 118°53'1214.8
2014-Jul-25 10:33N 24°24' E 119°03'1414.3
2014-Jul-25 09:33N 24°33' E 119°15'5713.9
2014-Jul-25 05:29N 25°12' E 120°00'28114.1
2014-Jul-24 09:33N 29°20' E 122°29'1413.8
2014-Jul-24 08:33N 29°34' E 122°28'1413.8
2014-Jul-24 07:33N 29°45' E 122°18'1111.1
2014-Jul-24 06:33N 29°54' E 122°10'1312.8
2014-Jul-24 05:34N 29°57' E 121°56'4 3.6
2014-Jul-24 04:29N 29°56' E 121°52'0 0.0
2014-Jul-24 03:29N 29°56' E 121°52'0 0.0
2014-Jul-24 02:29N 29°56' E 121°52'0 0.0
2014-Jul-24 01:29N 29°56' E 121°52'0 0.0
2014-Jul-24 00:29N 29°56' E 121°52'0 0.0
2014-Jul-23 23:29N 29°56' E 121°52'0 0.0
2014-Jul-23 22:29N 29°56' E 121°52'0 0.0
2014-Jul-23 21:29N 29°56' E 121°52'0 0.0
2014-Jul-23 20:29N 29°56' E 121°52'0 0.0
2014-Jul-23 19:29N 29°56' E 121°52'0 0.0
2014-Jul-23 18:29N 29°56' E 121°52'0 0.0
2014-Jul-23 17:29N 29°56' E 121°52'0 0.0
2014-Jul-23 16:30N 29°56' E 121°52'1 1.4
2014-Jul-23 15:33N 29°57' E 121°54'7 6.5
2014-Jul-23 14:33N 29°56' E 122°01'1212.2
2014-Jul-23 13:33N 29°50' E 122°13'1010.5
2014-Jul-23 12:33N 29°44' E 122°24'9 9.3
2014-Jul-23 11:34N 29°45' E 122°34'10 9.9
2014-Jul-23 10:33N 29°54' E 122°39'2 1.6
2014-Jul-23 09:33N 29°53' E 122°39'2 1.6
2014-Jul-23 08:34N 29°51' E 122°40'1 1.3
2014-Jul-23 07:29N 29°50' E 122°41'1 1.4
2014-Jul-23 06:33N 29°49' E 122°42'1 0.8
2014-Jul-23 05:32N 29°49' E 122°42'6 6.3
2014-Jul-23 04:32N 29°54' E 122°45'10 9.8
2014-Jul-23 03:30N 30°02' E 122°53'9 9.6
2014-Jul-23 02:34N 30°09' E 122°58'9 9.4
2014-Jul-23 01:33N 30°19' E 122°60'9 9.5
2014-Jul-23 00:34N 30°28' E 122°60'9 9.1
2014-Jul-22 23:33N 30°37' E 122°58'8 7.9
2014-Jul-22 22:33N 30°45' E 122°56'8 8.0
2014-Jul-22 21:33N 30°52' E 122°53'9 8.7
2014-Jul-22 20:33N 31°01' E 122°51'9 8.2
2014-Jul-22 19:26N 31°06' E 122°41'1010.3
2014-Jul-22 18:28N 31°06' E 122°30'9 9.3
2014-Jul-22 17:33N 31°06' E 122°20'1313.0
2014-Jul-22 16:34N 31°13' E 122°07'1211.9
2014-Jul-22 15:33N 31°16' E 121°53'1212.6
2014-Jul-22 14:33N 31°21' E 121°40'5 5.1
2014-Jul-22 13:32N 31°23' E 121°35'0 0.0
2014-Jul-22 12:32N 31°23' E 121°35'0 0.0
2014-Jul-22 11:26N 31°23' E 121°35'0 0.0
2014-Jul-22 10:32N 31°23' E 121°35'0 0.0
2014-Jul-22 08:27N 31°23' E 121°35'0 0.0
2014-Jul-22 07:32N 31°23' E 121°35'  
Track history (hours):
 
Tides and Currents Weather Stations Pressure Air Temp Water Temp Dewpoint Dewpoint Depression Visibility Wind Speed Wind Dir Waves Ship Positions

Hanjin Chongqing

Last reported at 2014-Aug-01 07:28 UTC. Time now 2014-Aug-01 07:50 UTC.
Position N 01°16' E 103°51'.

Length 304 m; draft 12 m.

Type: Cargo ship. MMSI: 353957976.

Date/timePositionNaut miles runAvg speedWind from/ knotsBaromVisibWave heightAir tempDewpointWater temp
2014-Aug-01 07:28N 01°16' E 103°51'0 0.0
2014-Aug-01 06:31N 01°16' E 103°51'0 0.0
2014-Aug-01 05:31N 01°16' E 103°51'0 0.0
2014-Aug-01 04:31N 01°16' E 103°51'0 0.0
2014-Aug-01 03:31N 01°16' E 103°51'0 0.0
2014-Aug-01 02:31N 01°16' E 103°51'0 0.0
2014-Aug-01 01:31N 01°16' E 103°51'0 0.0
2014-Aug-01 00:31N 01°16' E 103°51'0 0.0
2014-Jul-31 23:28N 01°16' E 103°51'0 0.0
2014-Jul-31 22:31N 01°16' E 103°51'0 0.0
2014-Jul-31 21:31N 01°16' E 103°51'0 0.0
2014-Jul-31 20:31N 01°16' E 103°51'0 0.0
2014-Jul-31 19:31N 01°16' E 103°51'0 0.0
2014-Jul-31 18:31N 01°16' E 103°51'0 0.0
2014-Jul-31 17:28N 01°16' E 103°51'0 0.0
2014-Jul-31 16:28N 01°16' E 103°51'0 0.0
2014-Jul-31 15:31N 01°16' E 103°51'0 0.0
2014-Jul-31 14:31N 01°16' E 103°51'0 0.5
2014-Jul-31 13:33N 01°16' E 103°51'3 3.0
2014-Jul-31 12:33N 01°14' E 103°54'3 3.1
2014-Jul-31 11:33N 01°15' E 103°57'  
2014-Jul-26 23:13N 22°34' E 114°17'1 2.0
2014-Jul-26 22:29N 22°34' E 114°16'0 0.1
2014-Jul-26 21:29N 22°34' E 114°16'0 0.1
2014-Jul-26 20:23N 22°34' E 114°16'0 0.0
2014-Jul-26 19:29N 22°34' E 114°16'0 0.0
2014-Jul-26 18:29N 22°34' E 114°16'0 0.1
2014-Jul-26 17:29N 22°34' E 114°16'0 0.1
2014-Jul-26 16:29N 22°34' E 114°16'0 0.1
2014-Jul-26 15:29N 22°34' E 114°16'0 0.0
2014-Jul-26 14:29N 22°34' E 114°16'0 0.1
2014-Jul-26 13:29N 22°34' E 114°16'0 0.1
2014-Jul-26 12:29N 22°34' E 114°16'0 0.1
2014-Jul-26 11:29N 22°34' E 114°16'0 0.0
2014-Jul-26 10:29N 22°34' E 114°16'0 0.0
2014-Jul-26 09:23N 22°34' E 114°16'0 0.5
2014-Jul-26 08:33N 22°34' E 114°16'12612.6
2014-Jul-25 22:32N 22°40' E 116°32'1514.3
2014-Jul-25 21:30N 22°44' E 116°47'1414.5
2014-Jul-25 20:33N 22°52' E 116°60'1514.4
2014-Jul-25 19:33N 23°00' E 117°13'2914.6
2014-Jul-25 17:33N 23°17' E 117°39'1414.4
2014-Jul-25 16:33N 23°27' E 117°50'1514.9
2014-Jul-25 15:33N 23°37' E 118°02'1514.7
2014-Jul-25 14:33N 23°47' E 118°14'1514.7
2014-Jul-25 13:33N 23°57' E 118°26'3214.4
2014-Jul-25 11:20N 24°17' E 118°53'1214.8
2014-Jul-25 10:33N 24°24' E 119°03'1414.3
2014-Jul-25 09:33N 24°33' E 119°15'5713.9
2014-Jul-25 05:29N 25°12' E 120°00'28114.1
2014-Jul-24 09:33N 29°20' E 122°29'1413.8
2014-Jul-24 08:33N 29°34' E 122°28'1413.8
2014-Jul-24 07:33N 29°45' E 122°18'1111.1
2014-Jul-24 06:33N 29°54' E 122°10'1312.8
2014-Jul-24 05:34N 29°57' E 121°56'4 3.6
2014-Jul-24 04:29N 29°56' E 121°52'0 0.0
2014-Jul-24 03:29N 29°56' E 121°52'0 0.0
2014-Jul-24 02:29N 29°56' E 121°52'0 0.0
2014-Jul-24 01:29N 29°56' E 121°52'0 0.0
2014-Jul-24 00:29N 29°56' E 121°52'0 0.0
2014-Jul-23 23:29N 29°56' E 121°52'0 0.0
2014-Jul-23 22:29N 29°56' E 121°52'0 0.0
2014-Jul-23 21:29N 29°56' E 121°52'0 0.0
2014-Jul-23 20:29N 29°56' E 121°52'0 0.0
2014-Jul-23 19:29N 29°56' E 121°52'0 0.0
2014-Jul-23 18:29N 29°56' E 121°52'0 0.0
2014-Jul-23 17:29N 29°56' E 121°52'0 0.0
2014-Jul-23 16:30N 29°56' E 121°52'1 1.4
2014-Jul-23 15:33N 29°57' E 121°54'7 6.5
2014-Jul-23 14:33N 29°56' E 122°01'1212.2
2014-Jul-23 13:33N 29°50' E 122°13'1010.5
2014-Jul-23 12:33N 29°44' E 122°24'9 9.3
2014-Jul-23 11:34N 29°45' E 122°34'10 9.9
2014-Jul-23 10:33N 29°54' E 122°39'2 1.6
2014-Jul-23 09:33N 29°53' E 122°39'2 1.6
2014-Jul-23 08:34N 29°51' E 122°40'1 1.3
2014-Jul-23 07:29N 29°50' E 122°41'1 1.4
2014-Jul-23 06:33N 29°49' E 122°42'1 0.8
2014-Jul-23 05:32N 29°49' E 122°42'6 6.3
2014-Jul-23 04:32N 29°54' E 122°45'10 9.8
2014-Jul-23 03:30N 30°02' E 122°53'9 9.6
2014-Jul-23 02:34N 30°09' E 122°58'9 9.4
2014-Jul-23 01:33N 30°19' E 122°60'9 9.5
2014-Jul-23 00:34N 30°28' E 122°60'9 9.1
2014-Jul-22 23:33N 30°37' E 122°58'8 7.9
2014-Jul-22 22:33N 30°45' E 122°56'8 8.0
2014-Jul-22 21:33N 30°52' E 122°53'9 8.7
2014-Jul-22 20:33N 31°01' E 122°51'9 8.2
2014-Jul-22 19:26N 31°06' E 122°41'1010.3
2014-Jul-22 18:28N 31°06' E 122°30'9 9.3
2014-Jul-22 17:33N 31°06' E 122°20'1313.0
2014-Jul-22 16:34N 31°13' E 122°07'1211.9
2014-Jul-22 15:33N 31°16' E 121°53'1212.6
2014-Jul-22 14:33N 31°21' E 121°40'5 5.1
2014-Jul-22 13:32N 31°23' E 121°35'0 0.0
2014-Jul-22 12:32N 31°23' E 121°35'0 0.0
2014-Jul-22 11:26N 31°23' E 121°35'0 0.0
2014-Jul-22 10:32N 31°23' E 121°35'0 0.0
2014-Jul-22 08:27N 31°23' E 121°35'0 0.0
2014-Jul-22 07:32N 31°23' E 121°35'  

Dump ship's entire track history